SKSM/SMR METAR and TAF weather

Enter ICAO airport designator
Station Type Date Time Source
SKSM METAR 2021/07/26 11:00 UTC NOAA

SKSM 261100Z 19007KT 9999 FEW020 SCT070 26/26 Q1013 RMK A2994


Station Type Date Time Source
SKSM Decoded METAR 2021/07/26 11:00 UTC NOAA

Santa Marta / Simon Bolivar, Colombia (SKSM) 11-08N 074-14W 14M
Jul 26, 2021 - 07:00 AM EDT / 2021.07.26 1100 UTC
Wind: from the S (190 degrees) at 8 MPH (7 KT):0
Visibility: greater than 7 mile(s):0
Sky conditions: partly cloudy
Temperature: 78 F (26 C)
Dew Point: 78 F (26 C)
Relative Humidity: 100%
Pressure (altimeter): 29.91 in. Hg (1013 hPa)
ob: SKSM 261100Z 19007KT 9999 FEW020 SCT070 26/26 Q1013 RMK A2994
cycle: 11

Station Type Date Time Source
SKSM TAF UTC NOAA

Error!

Example: see airport list